VLG9GQ LEAL-LEBL
Flight info
| Callsign | VLG9GQ |
|---|---|
| Flight time | 0h 42m |
| Altitude | 30000 |
| Route | MITOS N608 MATEX |
| Aircraft | A320/M-V/N |
Departure
| Time | 2026-05-07 16:30 |
|---|---|
| Airport | Alicante-Elche Miguel Hernández Airport (LEAL) |
Arrival
| Time | 2026-05-07 17:13 |
|---|---|
| Airport | Josep Tarradellas Barcelona-El Prat Airport (LEBL) |
| Time | Latitude | Longitude | Altitude | Speed | Heading |
|---|---|---|---|---|---|
| 2026-05-07 15:57 | 38.28523 | -0.55232 | 93 ft | 0 kts | 9° |
| 2026-05-07 16:14 | 38.28511 | -0.55234 | 94 ft | 4 kts | 7° |
| 2026-05-07 16:14 | 38.28484 | -0.55237 | 91 ft | 4 kts | 357° |
| 2026-05-07 16:14 | 38.28458 | -0.55232 | 92 ft | 4 kts | 334° |
| 2026-05-07 16:14 | 38.28443 | -0.55214 | 93 ft | 1 kts | 280° |
| 2026-05-07 16:15 | 38.28443 | -0.55213 | 93 ft | 1 kts | 280° |
| 2026-05-07 16:19 | 38.28443 | -0.55214 | 93 ft | 1 kts | 280° |
| 2026-05-07 16:19 | 38.28447 | -0.55244 | 93 ft | 7 kts | 280° |
| 2026-05-07 16:19 | 38.28458 | -0.55326 | 97 ft | 11 kts | 279° |
| 2026-05-07 16:19 | 38.28473 | -0.55427 | 98 ft | 12 kts | 280° |
| 2026-05-07 16:20 | 38.28487 | -0.55534 | 101 ft | 9 kts | 280° |
| 2026-05-07 16:20 | 38.28457 | -0.55598 | 101 ft | 10 kts | 200° |
| 2026-05-07 16:20 | 38.28392 | -0.55619 | 97 ft | 12 kts | 207° |
| 2026-05-07 16:20 | 38.28383 | -0.55726 | 98 ft | 14 kts | 280° |
| 2026-05-07 16:21 | 38.28401 | -0.55859 | 98 ft | 15 kts | 279° |
| 2026-05-07 16:21 | 38.28419 | -0.55991 | 98 ft | 12 kts | 280° |
| 2026-05-07 16:21 | 38.28436 | -0.56108 | 97 ft | 14 kts | 280° |
| 2026-05-07 16:21 | 38.28454 | -0.56235 | 101 ft | 15 kts | 280° |
| 2026-05-07 16:22 | 38.28474 | -0.56381 | 107 ft | 18 kts | 280° |
| 2026-05-07 16:22 | 38.28495 | -0.56529 | 113 ft | 16 kts | 280° |
| 2026-05-07 16:22 | 38.28513 | -0.56659 | 119 ft | 14 kts | 279° |
| 2026-05-07 16:22 | 38.28529 | -0.56772 | 120 ft | 12 kts | 281° |
| 2026-05-07 16:23 | 38.28539 | -0.56846 | 127 ft | 14 kts | 279° |
| 2026-05-07 16:23 | 38.28562 | -0.57010 | 134 ft | 16 kts | 280° |
| 2026-05-07 16:23 | 38.28583 | -0.57157 | 141 ft | 16 kts | 279° |
| 2026-05-07 16:23 | 38.28601 | -0.57291 | 147 ft | 15 kts | 280° |
| 2026-05-07 16:24 | 38.28613 | -0.57377 | 150 ft | 14 kts | 279° |
| 2026-05-07 16:24 | 38.28613 | -0.57477 | 153 ft | 9 kts | 239° |
| 2026-05-07 16:24 | 38.28554 | -0.57509 | 153 ft | 0 kts | 190° |
| 2026-05-07 16:26 | 38.28553 | -0.57509 | 153 ft | 0 kts | 190° |
| 2026-05-07 16:27 | 38.28538 | -0.57513 | 153 ft | 6 kts | 191° |
| 2026-05-07 16:27 | 38.28476 | -0.57514 | 153 ft | 10 kts | 157° |
| 2026-05-07 16:28 | 38.28443 | -0.57438 | 152 ft | 1 kts | 101° |
| 2026-05-07 16:29 | 38.28440 | -0.57417 | 152 ft | 9 kts | 101° |
| 2026-05-07 16:29 | 38.28388 | -0.57047 | 141 ft | 79 kts | 100° |
| 2026-05-07 16:30 | 38.28254 | -0.56087 | 110 ft | 138 kts | 100° |
| 2026-05-07 16:30 | 38.28065 | -0.54766 | 479 ft | 153 kts | 101° |
| 2026-05-07 16:30 | 38.27846 | -0.53446 | 1255 ft | 151 kts | 101° |
| 2026-05-07 16:30 | 38.27614 | -0.52078 | 1793 ft | 168 kts | 101° |
| 2026-05-07 16:31 | 38.27373 | -0.50531 | 2255 ft | 189 kts | 96° |
| 2026-05-07 16:31 | 38.27416 | -0.48777 | 2710 ft | 213 kts | 78° |
| 2026-05-07 16:31 | 38.27958 | -0.46914 | 3416 ft | 238 kts | 59° |
| 2026-05-07 16:31 | 38.28915 | -0.45089 | 4548 ft | 254 kts | 56° |
| 2026-05-07 16:32 | 38.29928 | -0.43166 | 5504 ft | 269 kts | 56° |
| 2026-05-07 16:32 | 38.30966 | -0.41166 | 5884 ft | 271 kts | 57° |
| 2026-05-07 16:32 | 38.32008 | -0.39144 | 6824 ft | 274 kts | 56° |
| 2026-05-07 16:32 | 38.33064 | -0.37087 | 7830 ft | 282 kts | 56° |
| 2026-05-07 16:33 | 38.34009 | -0.34851 | 8703 ft | 290 kts | 68° |
| 2026-05-07 16:33 | 38.34714 | -0.32449 | 9525 ft | 295 kts | 69° |
| 2026-05-07 16:33 | 38.35452 | -0.29978 | 10221 ft | 305 kts | 68° |
| 2026-05-07 16:33 | 38.36253 | -0.27366 | 10525 ft | 327 kts | 68° |
| 2026-05-07 16:34 | 38.37150 | -0.24612 | 10876 ft | 344 kts | 66° |
| 2026-05-07 16:34 | 38.38111 | -0.21773 | 11523 ft | 351 kts | 66° |
| 2026-05-07 16:34 | 38.39095 | -0.18898 | 12227 ft | 356 kts | 66° |
| 2026-05-07 16:34 | 38.40086 | -0.15986 | 12955 ft | 360 kts | 66° |
| 2026-05-07 16:35 | 38.41084 | -0.13024 | 13679 ft | 365 kts | 66° |
| 2026-05-07 16:35 | 38.42075 | -0.10058 | 14329 ft | 369 kts | 67° |
| 2026-05-07 16:35 | 38.43250 | -0.07137 | 14961 ft | 372 kts | 55° |
| 2026-05-07 16:35 | 38.44950 | -0.04632 | 15579 ft | 375 kts | 40° |
| 2026-05-07 16:36 | 38.47099 | -0.02752 | 16194 ft | 376 kts | 25° |
| 2026-05-07 16:36 | 38.49561 | -0.01624 | 16819 ft | 377 kts | 9° |
| 2026-05-07 16:36 | 38.52172 | -0.01310 | 17450 ft | 377 kts | 357° |
| 2026-05-07 16:36 | 38.54781 | -0.01305 | 18090 ft | 381 kts | 357° |
| 2026-05-07 16:37 | 38.57451 | -0.01291 | 18671 ft | 386 kts | 357° |
| 2026-05-07 16:37 | 38.60152 | -0.01273 | 19234 ft | 390 kts | 357° |
| 2026-05-07 16:37 | 38.62883 | -0.01254 | 19806 ft | 394 kts | 357° |
| 2026-05-07 16:37 | 38.65639 | -0.01237 | 20388 ft | 398 kts | 356° |
| 2026-05-07 16:38 | 38.68431 | -0.01219 | 20942 ft | 402 kts | 356° |
| 2026-05-07 16:38 | 38.71243 | -0.01202 | 21497 ft | 406 kts | 356° |
| 2026-05-07 16:38 | 38.74090 | -0.01182 | 22041 ft | 410 kts | 356° |
| 2026-05-07 16:38 | 38.76958 | -0.01161 | 22599 ft | 414 kts | 356° |
| 2026-05-07 16:39 | 38.79853 | -0.01140 | 23144 ft | 417 kts | 356° |
| 2026-05-07 16:39 | 38.82767 | -0.01123 | 23650 ft | 421 kts | 356° |
| 2026-05-07 16:39 | 38.85674 | -0.01108 | 24100 ft | 424 kts | 356° |
| 2026-05-07 16:39 | 38.88635 | -0.01091 | 24553 ft | 427 kts | 356° |
| 2026-05-07 16:40 | 38.91620 | -0.01073 | 24987 ft | 430 kts | 356° |
| 2026-05-07 16:40 | 38.94627 | -0.01053 | 25420 ft | 433 kts | 356° |
| 2026-05-07 16:40 | 38.97660 | -0.01028 | 25843 ft | 436 kts | 356° |
| 2026-05-07 16:40 | 39.00710 | -0.01003 | 26258 ft | 439 kts | 356° |
| 2026-05-07 16:41 | 39.03774 | -0.00982 | 26656 ft | 442 kts | 356° |
| 2026-05-07 16:41 | 39.06826 | -0.00961 | 27041 ft | 445 kts | 355° |
| 2026-05-07 16:41 | 39.09939 | -0.00939 | 27426 ft | 448 kts | 355° |
| 2026-05-07 16:41 | 39.13074 | -0.00918 | 27813 ft | 451 kts | 355° |
| 2026-05-07 16:42 | 39.16224 | -0.00898 | 28206 ft | 454 kts | 355° |
| 2026-05-07 16:42 | 39.19399 | -0.00880 | 28583 ft | 457 kts | 355° |
| 2026-05-07 16:42 | 39.22592 | -0.00861 | 28960 ft | 460 kts | 355° |
| 2026-05-07 16:42 | 39.25803 | -0.00840 | 29319 ft | 463 kts | 355° |
| 2026-05-07 16:43 | 39.29001 | -0.00820 | 29674 ft | 466 kts | 355° |
| 2026-05-07 16:43 | 39.32261 | -0.00799 | 29917 ft | 468 kts | 355° |
| 2026-05-07 16:43 | 39.35482 | -0.00771 | 29946 ft | 456 kts | 355° |
| 2026-05-07 16:44 | 39.41749 | -0.00717 | 29943 ft | 450 kts | 354° |
| 2026-05-07 16:44 | 39.48010 | -0.00688 | 29941 ft | 449 kts | 354° |
| 2026-05-07 16:45 | 39.54262 | -0.00655 | 29940 ft | 450 kts | 355° |
| 2026-05-07 16:45 | 39.60535 | -0.00611 | 29946 ft | 450 kts | 355° |
| 2026-05-07 16:46 | 39.66809 | -0.00572 | 29944 ft | 450 kts | 354° |
| 2026-05-07 16:46 | 39.73045 | -0.00537 | 29948 ft | 451 kts | 354° |
| 2026-05-07 16:47 | 39.79329 | -0.00497 | 29944 ft | 451 kts | 354° |
| 2026-05-07 16:47 | 39.85628 | 0.00356 | 29950 ft | 461 kts | 10° |
| 2026-05-07 16:48 | 39.91819 | 0.02670 | 29957 ft | 463 kts | 11° |
| 2026-05-07 16:48 | 39.97989 | 0.04966 | 29960 ft | 463 kts | 11° |
| 2026-05-07 16:49 | 40.04203 | 0.07263 | 29966 ft | 463 kts | 11° |
| 2026-05-07 16:49 | 40.10417 | 0.09571 | 29981 ft | 464 kts | 11° |
| 2026-05-07 16:50 | 40.16597 | 0.11881 | 29983 ft | 463 kts | 10° |
| 2026-05-07 16:50 | 40.22807 | 0.14202 | 29889 ft | 462 kts | 11° |
| 2026-05-07 16:50 | 40.25879 | 0.15357 | 29605 ft | 458 kts | 11° |
| 2026-05-07 16:51 | 40.28897 | 0.16497 | 29282 ft | 452 kts | 11° |
| 2026-05-07 16:51 | 40.31913 | 0.17633 | 28751 ft | 449 kts | 11° |
| 2026-05-07 16:51 | 40.34902 | 0.18753 | 28242 ft | 444 kts | 11° |
| 2026-05-07 16:51 | 40.37861 | 0.19859 | 27723 ft | 440 kts | 11° |
| 2026-05-07 16:52 | 40.40796 | 0.20960 | 27242 ft | 437 kts | 11° |
| 2026-05-07 16:52 | 40.43683 | 0.22130 | 26882 ft | 434 kts | 18° |
| 2026-05-07 16:52 | 40.46294 | 0.24056 | 26782 ft | 430 kts | 34° |
| 2026-05-07 16:52 | 40.48396 | 0.26802 | 26680 ft | 424 kts | 52° |
| 2026-05-07 16:53 | 40.50029 | 0.29973 | 26584 ft | 414 kts | 55° |
| 2026-05-07 16:53 | 40.51616 | 0.33146 | 26493 ft | 416 kts | 55° |
| 2026-05-07 16:53 | 40.53205 | 0.36335 | 26403 ft | 416 kts | 55° |
| 2026-05-07 16:53 | 40.54792 | 0.39522 | 26304 ft | 416 kts | 55° |
| 2026-05-07 16:54 | 40.56377 | 0.42712 | 26044 ft | 417 kts | 55° |
| 2026-05-07 16:54 | 40.57944 | 0.45860 | 25573 ft | 417 kts | 55° |
| 2026-05-07 16:54 | 40.59537 | 0.49058 | 25118 ft | 418 kts | 55° |
| 2026-05-07 16:54 | 40.61133 | 0.52263 | 24657 ft | 418 kts | 55° |
| 2026-05-07 16:55 | 40.62721 | 0.55461 | 24199 ft | 418 kts | 55° |
| 2026-05-07 16:55 | 40.64310 | 0.58668 | 23728 ft | 418 kts | 55° |
| 2026-05-07 16:55 | 40.65905 | 0.61893 | 23200 ft | 418 kts | 55° |
| 2026-05-07 16:55 | 40.67467 | 0.65058 | 22711 ft | 417 kts | 55° |
| 2026-05-07 16:56 | 40.69045 | 0.68258 | 22231 ft | 415 kts | 55° |
| 2026-05-07 16:56 | 40.70614 | 0.71443 | 21719 ft | 413 kts | 55° |
| 2026-05-07 16:56 | 40.73736 | 0.77787 | 20687 ft | 411 kts | 55° |
| 2026-05-07 16:57 | 40.75296 | 0.80953 | 20163 ft | 410 kts | 55° |
| 2026-05-07 16:57 | 40.76847 | 0.84104 | 19632 ft | 409 kts | 55° |
| 2026-05-07 16:57 | 40.78374 | 0.87211 | 19108 ft | 407 kts | 55° |
| 2026-05-07 16:57 | 40.79891 | 0.90307 | 18569 ft | 394 kts | 55° |
| 2026-05-07 16:58 | 40.81352 | 0.93292 | 18051 ft | 379 kts | 55° |
| 2026-05-07 16:58 | 40.82760 | 0.96165 | 17536 ft | 365 kts | 55° |
| 2026-05-07 16:58 | 40.84136 | 0.98971 | 17062 ft | 363 kts | 55° |
| 2026-05-07 16:58 | 40.85507 | 1.01775 | 16581 ft | 361 kts | 56° |
| 2026-05-07 16:59 | 40.86865 | 1.04557 | 16104 ft | 360 kts | 56° |
| 2026-05-07 16:59 | 40.88203 | 1.07299 | 15633 ft | 358 kts | 56° |
| 2026-05-07 16:59 | 40.89551 | 1.10062 | 15156 ft | 357 kts | 56° |
| 2026-05-07 16:59 | 40.90893 | 1.12811 | 14678 ft | 355 kts | 56° |
| 2026-05-07 17:00 | 40.92226 | 1.15552 | 14202 ft | 354 kts | 56° |
| 2026-05-07 17:00 | 40.93551 | 1.18281 | 13730 ft | 352 kts | 56° |
| 2026-05-07 17:00 | 40.94869 | 1.20998 | 13225 ft | 350 kts | 56° |
| 2026-05-07 17:00 | 40.96177 | 1.23700 | 12757 ft | 347 kts | 56° |
| 2026-05-07 17:01 | 40.97473 | 1.26378 | 12308 ft | 344 kts | 56° |
| 2026-05-07 17:01 | 40.98759 | 1.29033 | 11827 ft | 341 kts | 56° |
| 2026-05-07 17:01 | 41.00038 | 1.31675 | 11381 ft | 339 kts | 55° |
| 2026-05-07 17:01 | 41.01308 | 1.34296 | 10929 ft | 337 kts | 55° |
| 2026-05-07 17:02 | 41.02569 | 1.36896 | 10484 ft | 335 kts | 55° |
| 2026-05-07 17:02 | 41.03806 | 1.39449 | 10158 ft | 329 kts | 55° |
| 2026-05-07 17:02 | 41.05018 | 1.41964 | 10027 ft | 317 kts | 55° |
| 2026-05-07 17:02 | 41.06184 | 1.44394 | 9897 ft | 307 kts | 55° |
| 2026-05-07 17:03 | 41.07316 | 1.46752 | 9335 ft | 302 kts | 55° |
| 2026-05-07 17:03 | 41.08451 | 1.49115 | 8538 ft | 303 kts | 55° |
| 2026-05-07 17:03 | 41.09555 | 1.51418 | 8251 ft | 286 kts | 55° |
| 2026-05-07 17:03 | 41.10571 | 1.53542 | 8118 ft | 267 kts | 55° |
| 2026-05-07 17:04 | 41.11560 | 1.55610 | 8001 ft | 258 kts | 55° |
| 2026-05-07 17:04 | 41.12366 | 1.57682 | 7751 ft | 256 kts | 63° |
| 2026-05-07 17:04 | 41.13126 | 1.59860 | 7407 ft | 255 kts | 63° |
| 2026-05-07 17:04 | 41.13852 | 1.61947 | 7091 ft | 250 kts | 63° |
| 2026-05-07 17:05 | 41.14576 | 1.64024 | 6776 ft | 245 kts | 63° |
| 2026-05-07 17:05 | 41.15285 | 1.66058 | 6494 ft | 239 kts | 63° |
| 2026-05-07 17:05 | 41.15972 | 1.68036 | 6191 ft | 233 kts | 63° |
| 2026-05-07 17:05 | 41.16641 | 1.69961 | 5904 ft | 227 kts | 63° |
| 2026-05-07 17:06 | 41.17295 | 1.71844 | 5612 ft | 222 kts | 63° |
| 2026-05-07 17:06 | 41.17933 | 1.73681 | 5361 ft | 215 kts | 62° |
| 2026-05-07 17:06 | 41.18552 | 1.75468 | 5074 ft | 211 kts | 62° |
| 2026-05-07 17:06 | 41.19150 | 1.77212 | 4854 ft | 204 kts | 63° |
| 2026-05-07 17:07 | 41.19728 | 1.78888 | 4612 ft | 200 kts | 63° |
| 2026-05-07 17:07 | 41.20310 | 1.80572 | 4349 ft | 197 kts | 62° |
| 2026-05-07 17:07 | 41.20871 | 1.82193 | 4088 ft | 195 kts | 63° |
| 2026-05-07 17:07 | 41.21432 | 1.83814 | 3835 ft | 192 kts | 64° |
| 2026-05-07 17:08 | 41.21978 | 1.85394 | 3582 ft | 180 kts | 64° |
| 2026-05-07 17:08 | 41.22467 | 1.86811 | 3365 ft | 160 kts | 63° |
| 2026-05-07 17:08 | 41.22918 | 1.88115 | 3163 ft | 153 kts | 64° |
| 2026-05-07 17:08 | 41.23360 | 1.89396 | 2958 ft | 152 kts | 64° |
| 2026-05-07 17:09 | 41.23651 | 1.90238 | 2823 ft | 151 kts | 65° |
| 2026-05-07 17:09 | 41.24088 | 1.91504 | 2622 ft | 150 kts | 65° |
| 2026-05-07 17:09 | 41.24521 | 1.92760 | 2420 ft | 149 kts | 66° |
| 2026-05-07 17:09 | 41.24951 | 1.94008 | 2219 ft | 148 kts | 66° |
| 2026-05-07 17:10 | 41.25380 | 1.95251 | 2025 ft | 148 kts | 68° |
| 2026-05-07 17:10 | 41.25805 | 1.96487 | 1833 ft | 146 kts | 68° |
| 2026-05-07 17:10 | 41.26229 | 1.97718 | 1628 ft | 147 kts | 68° |
| 2026-05-07 17:10 | 41.26650 | 1.98942 | 1443 ft | 144 kts | 68° |
| 2026-05-07 17:11 | 41.27065 | 2.00147 | 1242 ft | 142 kts | 69° |
| 2026-05-07 17:11 | 41.27470 | 2.01326 | 1040 ft | 139 kts | 68° |
| 2026-05-07 17:11 | 41.27867 | 2.02480 | 835 ft | 136 kts | 69° |
| 2026-05-07 17:11 | 41.28250 | 2.03595 | 652 ft | 131 kts | 69° |
| 2026-05-07 17:12 | 41.28630 | 2.04699 | 460 ft | 130 kts | 69° |
| 2026-05-07 17:12 | 41.29004 | 2.05785 | 297 ft | 132 kts | 68° |
| 2026-05-07 17:12 | 41.29377 | 2.06887 | 94 ft | 129 kts | 68° |
| 2026-05-07 17:12 | 41.29735 | 2.07937 | 4 ft | 112 kts | 66° |
| 2026-05-07 17:13 | 41.29984 | 2.08661 | 7 ft | 61 kts | 65° |
| 2026-05-07 17:13 | 41.30111 | 2.09033 | 4 ft | 34 kts | 66° |
| 2026-05-07 17:13 | 41.30151 | 2.09259 | 3 ft | 23 kts | 93° |
| 2026-05-07 17:13 | 41.30120 | 2.09404 | 3 ft | 12 kts | 128° |
| 2026-05-07 17:14 | 41.30056 | 2.09403 | 3 ft | 11 kts | 224° |
| 2026-05-07 17:14 | 41.30015 | 2.09293 | 3 ft | 17 kts | 246° |
| 2026-05-07 17:14 | 41.29962 | 2.09137 | 3 ft | 20 kts | 245° |
| 2026-05-07 17:14 | 41.29902 | 2.08962 | 5 ft | 22 kts | 245° |
| 2026-05-07 17:15 | 41.29835 | 2.08766 | 5 ft | 25 kts | 246° |
| 2026-05-07 17:15 | 41.29757 | 2.08540 | 4 ft | 28 kts | 246° |
| 2026-05-07 17:15 | 41.29675 | 2.08302 | 3 ft | 20 kts | 245° |
| 2026-05-07 17:15 | 41.29615 | 2.08124 | 3 ft | 22 kts | 245° |
| 2026-05-07 17:16 | 41.29557 | 2.07956 | 4 ft | 18 kts | 245° |
| 2026-05-07 17:16 | 41.29518 | 2.07843 | 3 ft | 11 kts | 239° |
| 2026-05-07 17:16 | 41.29445 | 2.07835 | 3 ft | 13 kts | 159° |
| 2026-05-07 17:16 | 41.29360 | 2.07885 | 3 ft | 13 kts | 156° |
| 2026-05-07 17:17 | 41.29274 | 2.07936 | 3 ft | 8 kts | 156° |
| 2026-05-07 17:17 | 41.29230 | 2.07981 | 3 ft | 5 kts | 150° |
| 2026-05-07 17:17 | 41.29194 | 2.08004 | 3 ft | 3 kts | 154° |
| 2026-05-07 17:17 | 41.29182 | 2.08012 | 3 ft | 2 kts | 154° |
| 2026-05-07 17:18 | 41.29176 | 2.08016 | 3 ft | 0 kts | 154° |